Cardwell, Montana
Current Conditions -  °F | °C
As of 10:53 AM on Saturday 25 Oct 2014 (Local Time) from KBTM Reporting Station
Clear Clear  
Wind Chill: 44°   Ceiling: Unl
Heat Index: 44°   Visibility: 10mi
Dew Point: 36°   Wind: 0mph
Humidity: 73%   Direction: NA
Pressure: 29.97"   Gusts: NA
Location:  45.86°N, 111.96°W
Report Text: KBTM 251653Z AUTO 00000KT 10SM CLR 07/02 A2997 RMK AO2 SLP147 T00670022
Loading
Personal Weather Stations






























Interactive Weather Map
Tropical Storm Tracking
New forecast layout! Learn more

10-Day Weather Forecast

Advertisements
Track Severe Weather on mobile